sensor_id;sensor_type;location;lat;lon;timestamp;temperature;humidity
18717;DHT22;9487;50.892;6.906;2024-02-23T00:01:02;7.50;99.90
18717;DHT22;9487;50.892;6.906;2024-02-23T00:03:29;7.50;1.00
18717;DHT22;9487;50.892;6.906;2024-02-23T00:05:58;7.40;1.00
18717;DHT22;9487;50.892;6.906;2024-02-23T00:08:27;7.40;99.90
18717;DHT22;9487;50.892;6.906;2024-02-23T00:10:54;7.30;99.90
18717;DHT22;9487;50.892;6.906;2024-02-23T00:13:21;7.30;1.00
18717;DHT22;9487;50.892;6.906;2024-02-23T00:15:49;7.20;99.90
18717;DHT22;9487;50.892;6.906;2024-02-23T00:18:17;7.20;1.00
18717;DHT22;9487;50.892;6.906;2024-02-23T00:20:44;7.20;1.00
18717;DHT22;9487;50.892;6.906;2024-02-23T00:23:11;7.20;1.00
18717;DHT22;9487;50.892;6.906;2024-02-23T00:25:38;7.20;1.00
18717;DHT22;9487;50.892;6.906;2024-02-23T00:28:05;7.20;1.00
18717;DHT22;9487;50.892;6.906;2024-02-23T00:30:33;7.10;1.00
18717;DHT22;9487;50.892;6.906;2024-02-23T00:33:01;7.00;1.00
18717;DHT22;9487;50.892;6.906;2024-02-23T00:35:28;6.90;1.00
18717;DHT22;9487;50.892;6.906;2024-02-23T00:37:55;6.80;1.00
18717;DHT22;9487;50.892;6.906;2024-02-23T00:40:22;6.70;1.00
18717;DHT22;9487;50.892;6.906;2024-02-23T00:42:49;6.70;1.00
18717;DHT22;9487;50.892;6.906;2024-02-23T00:45:16;6.70;1.00
18717;DHT22;9487;50.892;6.906;2024-02-23T00:47:43;6.70;1.00
18717;DHT22;9487;50.892;6.906;2024-02-23T00:50:13;6.70;99.90
18717;DHT22;9487;50.892;6.906;2024-02-23T00:52:40;6.60;1.00
18717;DHT22;9487;50.892;6.906;2024-02-23T00:55:07;6.70;99.90
18717;DHT22;9487;50.892;6.906;2024-02-23T00:57:34;6.70;99.90
18717;DHT22;9487;50.892;6.906;2024-02-23T01:00:02;6.70;1.00
18717;DHT22;9487;50.892;6.906;2024-02-23T01:02:30;6.70;1.00
18717;DHT22;9487;50.892;6.906;2024-02-23T01:04:58;6.70;1.00
18717;DHT22;9487;50.892;6.906;2024-02-23T01:07:26;6.70;99.90
18717;DHT22;9487;50.892;6.906;2024-02-23T01:09:53;6.70;99.90
18717;DHT22;9487;50.892;6.906;2024-02-23T01:12:20;6.60;99.90
18717;DHT22;9487;50.892;6.906;2024-02-23T01:14:46;6.60;99.90
18717;DHT22;9487;50.892;6.906;2024-02-23T01:17:14;6.60;99.90
18717;DHT22;9487;50.892;6.906;2024-02-23T01:19:41;6.60;99.90
18717;DHT22;9487;50.892;6.906;2024-02-23T01:22:08;6.60;99.90
18717;DHT22;9487;50.892;6.906;2024-02-23T01:24:36;6.50;99.90
18717;DHT22;9487;50.892;6.906;2024-02-23T01:27:03;6.50;99.90
18717;DHT22;9487;50.892;6.906;2024-02-23T01:29:30;6.50;99.90
18717;DHT22;9487;50.892;6.906;2024-02-23T01:31:58;6.50;99.90
18717;DHT22;9487;50.892;6.906;2024-02-23T01:34:25;6.50;99.90
18717;DHT22;9487;50.892;6.906;2024-02-23T01:36:51;6.50;99.90
18717;DHT22;9487;50.892;6.906;2024-02-23T01:39:18;6.50;99.90
18717;DHT22;9487;50.892;6.906;2024-02-23T01:41:47;6.50;74.60
18717;DHT22;9487;50.892;6.906;2024-02-23T01:44:13;6.50;99.90
18717;DHT22;9487;50.892;6.906;2024-02-23T01:46:43;6.50;99.90
18717;DHT22;9487;50.892;6.906;2024-02-23T01:49:10;6.40;99.90
18717;DHT22;9487;50.892;6.906;2024-02-23T01:51:36;6.40;19.80
18717;DHT22;9487;50.892;6.906;2024-02-23T01:54:03;6.40;1.00
18717;DHT22;9487;50.892;6.906;2024-02-23T01:56:31;6.40;1.00
18717;DHT22;9487;50.892;6.906;2024-02-23T01:59:02;6.50;1.00
18717;DHT22;9487;50.892;6.906;2024-02-23T02:01:30;6.40;99.90
18717;DHT22;9487;50.892;6.906;2024-02-23T02:03:58;6.40;20.80
18717;DHT22;9487;50.892;6.906;2024-02-23T02:06:25;6.50;1.00
18717;DHT22;9487;50.892;6.906;2024-02-23T02:08:52;6.50;1.00
18717;DHT22;9487;50.892;6.906;2024-02-23T02:11:19;6.40;1.00
18717;DHT22;9487;50.892;6.906;2024-02-23T02:13:46;6.50;1.00
18717;DHT22;9487;50.892;6.906;2024-02-23T02:16:14;6.50;1.00
18717;DHT22;9487;50.892;6.906;2024-02-23T02:18:41;6.50;99.90
18717;DHT22;9487;50.892;6.906;2024-02-23T02:21:10;6.50;99.90
18717;DHT22;9487;50.892;6.906;2024-02-23T02:23:36;6.50;1.00
18717;DHT22;9487;50.892;6.906;2024-02-23T02:26:04;6.50;99.90
18717;DHT22;9487;50.892;6.906;2024-02-23T02:28:30;6.50;99.90
18717;DHT22;9487;50.892;6.906;2024-02-23T02:30:57;6.50;99.90
18717;DHT22;9487;50.892;6.906;2024-02-23T02:33:26;6.40;99.90
18717;DHT22;9487;50.892;6.906;2024-02-23T02:35:53;6.40;99.90
18717;DHT22;9487;50.892;6.906;2024-02-23T02:38:22;6.40;99.90
18717;DHT22;9487;50.892;6.906;2024-02-23T02:40:49;6.40;1.00
18717;DHT22;9487;50.892;6.906;2024-02-23T02:43:16;6.40;1.00
18717;DHT22;9487;50.892;6.906;2024-02-23T02:45:43;6.40;99.90
18717;DHT22;9487;50.892;6.906;2024-02-23T02:48:09;6.30;99.90
18717;DHT22;9487;50.892;6.906;2024-02-23T02:50:37;6.30;99.90
18717;DHT22;9487;50.892;6.906;2024-02-23T02:53:05;6.30;99.90
18717;DHT22;9487;50.892;6.906;2024-02-23T02:55:31;6.40;99.90
18717;DHT22;9487;50.892;6.906;2024-02-23T02:57:58;6.40;99.90
18717;DHT22;9487;50.892;6.906;2024-02-23T03:00:25;6.40;1.00
18717;DHT22;9487;50.892;6.906;2024-02-23T03:02:53;6.40;1.00
18717;DHT22;9487;50.892;6.906;2024-02-23T03:05:19;6.50;1.00
18717;DHT22;9487;50.892;6.906;2024-02-23T03:07:48;6.40;1.00
18717;DHT22;9487;50.892;6.906;2024-02-23T03:10:15;6.40;1.00
18717;DHT22;9487;50.892;6.906;2024-02-23T03:12:42;6.40;1.00
18717;DHT22;9487;50.892;6.906;2024-02-23T03:15:09;6.40;1.00
18717;DHT22;9487;50.892;6.906;2024-02-23T03:17:36;6.40;99.90
18717;DHT22;9487;50.892;6.906;2024-02-23T03:20:04;6.40;99.90
18717;DHT22;9487;50.892;6.906;2024-02-23T03:22:34;6.40;1.00
18717;DHT22;9487;50.892;6.906;2024-02-23T03:25:02;6.30;1.00
18717;DHT22;9487;50.892;6.906;2024-02-23T03:27:34;6.30;1.00
18717;DHT22;9487;50.892;6.906;2024-02-23T03:30:01;6.30;1.00
18717;DHT22;9487;50.892;6.906;2024-02-23T03:32:28;6.30;1.00
18717;DHT22;9487;50.892;6.906;2024-02-23T03:34:56;6.30;1.00
18717;DHT22;9487;50.892;6.906;2024-02-23T03:37:23;6.30;1.00
18717;DHT22;9487;50.892;6.906;2024-02-23T03:39:50;6.30;1.00
18717;DHT22;9487;50.892;6.906;2024-02-23T03:42:18;6.30;1.00
18717;DHT22;9487;50.892;6.906;2024-02-23T03:44:45;6.30;1.00
18717;DHT22;9487;50.892;6.906;2024-02-23T03:47:13;6.30;1.00
18717;DHT22;9487;50.892;6.906;2024-02-23T03:49:40;6.40;1.00
18717;DHT22;9487;50.892;6.906;2024-02-23T03:52:06;6.30;1.00
18717;DHT22;9487;50.892;6.906;2024-02-23T03:54:33;6.30;1.00
18717;DHT22;9487;50.892;6.906;2024-02-23T03:57:00;6.30;1.00
18717;DHT22;9487;50.892;6.906;2024-02-23T03:59:29;6.30;1.00
18717;DHT22;9487;50.892;6.906;2024-02-23T04:01:56;6.30;1.00
18717;DHT22;9487;50.892;6.906;2024-02-23T04:04:23;6.30;1.00
18717;DHT22;9487;50.892;6.906;2024-02-23T04:06:50;6.30;1.00
18717;DHT22;9487;50.892;6.906;2024-02-23T04:09:16;6.30;1.00
18717;DHT22;9487;50.892;6.906;2024-02-23T04:11:43;6.30;1.00
18717;DHT22;9487;50.892;6.906;2024-02-23T04:14:10;6.30;1.00
18717;DHT22;9487;50.892;6.906;2024-02-23T04:16:38;6.30;1.00
18717;DHT22;9487;50.892;6.906;2024-02-23T04:19:04;6.40;1.00
18717;DHT22;9487;50.892;6.906;2024-02-23T04:21:31;6.30;49.20
18717;DHT22;9487;50.892;6.906;2024-02-23T04:23:57;6.30;1.00
18717;DHT22;9487;50.892;6.906;2024-02-23T04:26:24;6.30;1.00
18717;DHT22;9487;50.892;6.906;2024-02-23T04:28:51;6.30;8.90
18717;DHT22;9487;50.892;6.906;2024-02-23T04:31:18;6.30;1.00
18717;DHT22;9487;50.892;6.906;2024-02-23T04:33:46;6.30;1.00
18717;DHT22;9487;50.892;6.906;2024-02-23T04:36:13;6.30;1.00
18717;DHT22;9487;50.892;6.906;2024-02-23T04:38:40;6.30;1.00
18717;DHT22;9487;50.892;6.906;2024-02-23T04:41:06;6.30;1.00
18717;DHT22;9487;50.892;6.906;2024-02-23T04:43:33;6.30;1.00
18717;DHT22;9487;50.892;6.906;2024-02-23T04:46:00;6.30;1.00
18717;DHT22;9487;50.892;6.906;2024-02-23T04:48:27;6.30;1.00
18717;DHT22;9487;50.892;6.906;2024-02-23T04:50:57;6.30;1.00
18717;DHT22;9487;50.892;6.906;2024-02-23T04:53:36;6.30;99.90
18717;DHT22;9487;50.892;6.906;2024-02-23T04:56:04;6.30;99.90
18717;DHT22;9487;50.892;6.906;2024-02-23T04:58:31;6.30;99.90
18717;DHT22;9487;50.892;6.906;2024-02-23T05:00:58;6.20;99.90
18717;DHT22;9487;50.892;6.906;2024-02-23T05:03:25;6.10;1.00
18717;DHT22;9487;50.892;6.906;2024-02-23T05:05:52;6.20;1.00
18717;DHT22;9487;50.892;6.906;2024-02-23T05:08:20;6.20;99.90
18717;DHT22;9487;50.892;6.906;2024-02-23T05:10:49;6.30;14.50
18717;DHT22;9487;50.892;6.906;2024-02-23T05:13:16;6.30;1.00
18717;DHT22;9487;50.892;6.906;2024-02-23T05:15:43;6.30;1.00
18717;DHT22;9487;50.892;6.906;2024-02-23T05:18:10;6.30;46.50
18717;DHT22;9487;50.892;6.906;2024-02-23T05:20:37;6.30;99.90
18717;DHT22;9487;50.892;6.906;2024-02-23T05:23:04;6.30;99.90
18717;DHT22;9487;50.892;6.906;2024-02-23T05:25:32;6.30;36.50
18717;DHT22;9487;50.892;6.906;2024-02-23T05:27:59;6.30;1.00
18717;DHT22;9487;50.892;6.906;2024-02-23T05:30:26;6.40;61.90
18717;DHT22;9487;50.892;6.906;2024-02-23T05:32:56;6.30;1.00
18717;DHT22;9487;50.892;6.906;2024-02-23T05:35:23;6.20;99.90
18717;DHT22;9487;50.892;6.906;2024-02-23T05:37:50;6.30;99.90
18717;DHT22;9487;50.892;6.906;2024-02-23T05:40:17;6.20;99.90
18717;DHT22;9487;50.892;6.906;2024-02-23T05:42:45;6.10;99.90
18717;DHT22;9487;50.892;6.906;2024-02-23T05:45:12;6.00;1.00
18717;DHT22;9487;50.892;6.906;2024-02-23T05:47:39;6.00;1.00
18717;DHT22;9487;50.892;6.906;2024-02-23T05:50:08;5.90;1.00
18717;DHT22;9487;50.892;6.906;2024-02-23T05:52:35;6.00;1.00
18717;DHT22;9487;50.892;6.906;2024-02-23T05:55:02;6.00;1.00
18717;DHT22;9487;50.892;6.906;2024-02-23T05:57:30;6.00;1.00
18717;DHT22;9487;50.892;6.906;2024-02-23T05:59:58;5.90;1.00
18717;DHT22;9487;50.892;6.906;2024-02-23T06:02:25;5.90;1.00
18717;DHT22;9487;50.892;6.906;2024-02-23T06:04:52;5.80;32.80
18717;DHT22;9487;50.892;6.906;2024-02-23T06:07:19;5.90;86.70
18717;DHT22;9487;50.892;6.906;2024-02-23T06:09:52;6.00;1.00
18717;DHT22;9487;50.892;6.906;2024-02-23T06:12:19;6.10;1.00
18717;DHT22;9487;50.892;6.906;2024-02-23T06:14:46;6.20;1.00
18717;DHT22;9487;50.892;6.906;2024-02-23T06:17:14;6.20;1.00
18717;DHT22;9487;50.892;6.906;2024-02-23T06:19:41;6.30;1.00
18717;DHT22;9487;50.892;6.906;2024-02-23T06:22:07;6.20;99.90
18717;DHT22;9487;50.892;6.906;2024-02-23T06:24:35;6.00;1.00
18717;DHT22;9487;50.892;6.906;2024-02-23T06:27:02;6.00;75.60
18717;DHT22;9487;50.892;6.906;2024-02-23T06:29:29;6.00;1.00
18717;DHT22;9487;50.892;6.906;2024-02-23T06:31:56;6.00;99.90
18717;DHT22;9487;50.892;6.906;2024-02-23T06:34:24;5.90;99.90
18717;DHT22;9487;50.892;6.906;2024-02-23T06:36:52;6.00;1.00
18717;DHT22;9487;50.892;6.906;2024-02-23T06:39:19;6.00;99.90
18717;DHT22;9487;50.892;6.906;2024-02-23T06:41:46;6.00;1.00
18717;DHT22;9487;50.892;6.906;2024-02-23T06:44:12;6.00;1.00
18717;DHT22;9487;50.892;6.906;2024-02-23T06:46:39;5.90;1.00
18717;DHT22;9487;50.892;6.906;2024-02-23T06:49:07;5.90;1.00
18717;DHT22;9487;50.892;6.906;2024-02-23T06:51:35;6.40;1.00
18717;DHT22;9487;50.892;6.906;2024-02-23T06:54:02;6.90;1.00
18717;DHT22;9487;50.892;6.906;2024-02-23T06:56:29;7.00;99.90
18717;DHT22;9487;50.892;6.906;2024-02-23T06:58:56;6.70;1.00
18717;DHT22;9487;50.892;6.906;2024-02-23T07:01:23;6.60;99.90
18717;DHT22;9487;50.892;6.906;2024-02-23T07:03:49;6.40;1.00
18717;DHT22;9487;50.892;6.906;2024-02-23T07:06:16;6.30;1.00
18717;DHT22;9487;50.892;6.906;2024-02-23T07:08:45;6.20;1.00
18717;DHT22;9487;50.892;6.906;2024-02-23T07:11:12;6.10;1.00
18717;DHT22;9487;50.892;6.906;2024-02-23T07:13:39;6.10;1.00
18717;DHT22;9487;50.892;6.906;2024-02-23T07:16:08;6.00;23.80
18717;DHT22;9487;50.892;6.906;2024-02-23T07:18:35;6.00;99.90
18717;DHT22;9487;50.892;6.906;2024-02-23T07:21:02;5.90;99.90
18717;DHT22;9487;50.892;6.906;2024-02-23T07:23:29;6.00;1.00
18717;DHT22;9487;50.892;6.906;2024-02-23T07:25:57;6.00;1.00
18717;DHT22;9487;50.892;6.906;2024-02-23T07:28:24;6.00;1.00
18717;DHT22;9487;50.892;6.906;2024-02-23T07:30:51;6.00;1.00
18717;DHT22;9487;50.892;6.906;2024-02-23T07:33:18;6.00;1.00
18717;DHT22;9487;50.892;6.906;2024-02-23T07:35:45;6.10;1.00
18717;DHT22;9487;50.892;6.906;2024-02-23T07:38:12;6.00;1.00
18717;DHT22;9487;50.892;6.906;2024-02-23T07:40:39;6.10;1.00
18717;DHT22;9487;50.892;6.906;2024-02-23T07:43:07;6.20;1.00
18717;DHT22;9487;50.892;6.906;2024-02-23T07:45:36;6.20;1.00
18717;DHT22;9487;50.892;6.906;2024-02-23T07:48:03;6.20;1.00
18717;DHT22;9487;50.892;6.906;2024-02-23T07:50:30;6.30;99.90
18717;DHT22;9487;50.892;6.906;2024-02-23T07:52:57;6.50;99.90
18717;DHT22;9487;50.892;6.906;2024-02-23T07:55:24;6.60;1.00
18717;DHT22;9487;50.892;6.906;2024-02-23T07:57:50;6.70;99.90
18717;DHT22;9487;50.892;6.906;2024-02-23T08:00:19;6.80;99.90
18717;DHT22;9487;50.892;6.906;2024-02-23T08:02:46;7.00;99.90
18717;DHT22;9487;50.892;6.906;2024-02-23T08:05:13;7.20;1.00
18717;DHT22;9487;50.892;6.906;2024-02-23T08:07:40;7.30;1.00
18717;DHT22;9487;50.892;6.906;2024-02-23T08:10:07;7.30;99.90
18717;DHT22;9487;50.892;6.906;2024-02-23T08:12:34;7.40;99.90
18717;DHT22;9487;50.892;6.906;2024-02-23T08:15:01;7.50;1.00
18717;DHT22;9487;50.892;6.906;2024-02-23T08:17:30;7.50;1.00
18717;DHT22;9487;50.892;6.906;2024-02-23T08:19:57;7.50;1.00
18717;DHT22;9487;50.892;6.906;2024-02-23T08:22:24;7.60;12.80
18717;DHT22;9487;50.892;6.906;2024-02-23T08:24:50;7.70;99.90
18717;DHT22;9487;50.892;6.906;2024-02-23T08:27:17;7.70;99.90
18717;DHT22;9487;50.892;6.906;2024-02-23T08:29:44;7.70;99.90
18717;DHT22;9487;50.892;6.906;2024-02-23T08:32:13;7.60;99.90
18717;DHT22;9487;50.892;6.906;2024-02-23T08:34:41;8.00;1.00
18717;DHT22;9487;50.892;6.906;2024-02-23T08:37:08;8.70;99.90
18717;DHT22;9487;50.892;6.906;2024-02-23T08:39:35;9.00;1.00
18717;DHT22;9487;50.892;6.906;2024-02-23T08:42:02;9.30;1.00
18717;DHT22;9487;50.892;6.906;2024-02-23T08:44:29;9.00;1.00
18717;DHT22;9487;50.892;6.906;2024-02-23T08:46:56;8.70;1.00
18717;DHT22;9487;50.892;6.906;2024-02-23T08:49:23;8.50;1.00
18717;DHT22;9487;50.892;6.906;2024-02-23T08:51:51;8.50;1.00
18717;DHT22;9487;50.892;6.906;2024-02-23T08:54:18;8.30;1.00
18717;DHT22;9487;50.892;6.906;2024-02-23T08:56:44;8.20;99.90
18717;DHT22;9487;50.892;6.906;2024-02-23T08:59:11;8.20;99.90
18717;DHT22;9487;50.892;6.906;2024-02-23T09:01:38;8.20;99.90
18717;DHT22;9487;50.892;6.906;2024-02-23T09:04:05;8.30;99.90
18717;DHT22;9487;50.892;6.906;2024-02-23T09:06:32;8.30;99.90
18717;DHT22;9487;50.892;6.906;2024-02-23T09:09:00;8.30;80.20
18717;DHT22;9487;50.892;6.906;2024-02-23T09:11:27;8.30;99.90
18717;DHT22;9487;50.892;6.906;2024-02-23T09:13:54;8.30;99.90
18717;DHT22;9487;50.892;6.906;2024-02-23T09:16:21;8.30;1.00
18717;DHT22;9487;50.892;6.906;2024-02-23T09:18:50;8.30;99.90
18717;DHT22;9487;50.892;6.906;2024-02-23T09:21:17;8.40;99.90
18717;DHT22;9487;50.892;6.906;2024-02-23T09:23:44;8.50;41.80
18717;DHT22;9487;50.892;6.906;2024-02-23T09:26:13;8.60;99.90
18717;DHT22;9487;50.892;6.906;2024-02-23T09:28:39;8.80;1.00
18717;DHT22;9487;50.892;6.906;2024-02-23T09:31:07;8.90;1.00
18717;DHT22;9487;50.892;6.906;2024-02-23T09:33:34;8.80;1.00
18717;DHT22;9487;50.892;6.906;2024-02-23T09:36:01;8.90;99.90
18717;DHT22;9487;50.892;6.906;2024-02-23T09:38:28;8.90;99.90
18717;DHT22;9487;50.892;6.906;2024-02-23T09:40:57;9.00;99.90
18717;DHT22;9487;50.892;6.906;2024-02-23T09:43:29;9.10;99.90
18717;DHT22;9487;50.892;6.906;2024-02-23T09:45:57;9.40;85.50
18717;DHT22;9487;50.892;6.906;2024-02-23T09:48:25;9.60;1.00
18717;DHT22;9487;50.892;6.906;2024-02-23T09:50:52;9.60;1.00
18717;DHT22;9487;50.892;6.906;2024-02-23T09:53:19;9.60;1.00
18717;DHT22;9487;50.892;6.906;2024-02-23T09:55:48;9.70;1.00
18717;DHT22;9487;50.892;6.906;2024-02-23T09:58:17;9.70;1.00
18717;DHT22;9487;50.892;6.906;2024-02-23T10:00:46;10.20;1.00
18717;DHT22;9487;50.892;6.906;2024-02-23T10:03:14;10.30;1.00
18717;DHT22;9487;50.892;6.906;2024-02-23T10:05:41;10.00;1.00
18717;DHT22;9487;50.892;6.906;2024-02-23T10:08:09;9.90;1.00
18717;DHT22;9487;50.892;6.906;2024-02-23T10:10:38;9.90;1.00
18717;DHT22;9487;50.892;6.906;2024-02-23T10:13:05;9.80;1.00
18717;DHT22;9487;50.892;6.906;2024-02-23T10:15:32;9.80;1.00
18717;DHT22;9487;50.892;6.906;2024-02-23T10:18:00;9.80;6.80
18717;DHT22;9487;50.892;6.906;2024-02-23T10:20:27;9.80;1.00
18717;DHT22;9487;50.892;6.906;2024-02-23T10:22:54;9.80;12.60
18717;DHT22;9487;50.892;6.906;2024-02-23T10:25:22;10.30;1.00
18717;DHT22;9487;50.892;6.906;2024-02-23T10:27:49;10.20;1.00
18717;DHT22;9487;50.892;6.906;2024-02-23T10:30:15;10.00;1.00
18717;DHT22;9487;50.892;6.906;2024-02-23T10:32:42;10.00;1.00
18717;DHT22;9487;50.892;6.906;2024-02-23T10:35:15;10.10;1.00
18717;DHT22;9487;50.892;6.906;2024-02-23T10:37:43;10.20;1.00
18717;DHT22;9487;50.892;6.906;2024-02-23T10:40:12;10.20;1.00
18717;DHT22;9487;50.892;6.906;2024-02-23T10:42:41;10.20;1.00
18717;DHT22;9487;50.892;6.906;2024-02-23T10:45:10;10.20;1.00
18717;DHT22;9487;50.892;6.906;2024-02-23T10:47:37;10.20;1.00
18717;DHT22;9487;50.892;6.906;2024-02-23T10:50:06;10.00;1.00
18717;DHT22;9487;50.892;6.906;2024-02-23T10:52:36;9.80;1.00
18717;DHT22;9487;50.892;6.906;2024-02-23T10:55:04;9.60;99.90
18717;DHT22;9487;50.892;6.906;2024-02-23T10:57:34;9.30;99.90
18717;DHT22;9487;50.892;6.906;2024-02-23T11:00:02;9.50;1.00
18717;DHT22;9487;50.892;6.906;2024-02-23T11:02:32;9.70;99.90
18717;DHT22;9487;50.892;6.906;2024-02-23T11:05:02;10.00;99.90
18717;DHT22;9487;50.892;6.906;2024-02-23T11:07:30;10.10;1.00
18717;DHT22;9487;50.892;6.906;2024-02-23T11:10:00;10.00;1.00
18717;DHT22;9487;50.892;6.906;2024-02-23T11:12:29;9.90;1.00
18717;DHT22;9487;50.892;6.906;2024-02-23T11:15:00;9.90;1.00
18717;DHT22;9487;50.892;6.906;2024-02-23T11:17:31;9.90;1.00
18717;DHT22;9487;50.892;6.906;2024-02-23T11:19:58;10.10;91.40
18717;DHT22;9487;50.892;6.906;2024-02-23T11:22:25;10.20;1.00
18717;DHT22;9487;50.892;6.906;2024-02-23T11:24:53;10.30;1.00
18717;DHT22;9487;50.892;6.906;2024-02-23T11:27:24;10.20;1.00
18717;DHT22;9487;50.892;6.906;2024-02-23T11:29:59;10.30;1.00
18717;DHT22;9487;50.892;6.906;2024-02-23T11:32:37;10.40;1.00
18717;DHT22;9487;50.892;6.906;2024-02-23T11:35:06;10.40;1.00
18717;DHT22;9487;50.892;6.906;2024-02-23T11:37:44;10.40;1.00
18717;DHT22;9487;50.892;6.906;2024-02-23T11:40:12;10.10;99.90
18717;DHT22;9487;50.892;6.906;2024-02-23T11:42:41;9.90;1.00
18717;DHT22;9487;50.892;6.906;2024-02-23T11:45:09;9.90;1.00
18717;DHT22;9487;50.892;6.906;2024-02-23T11:47:36;9.90;1.00
18717;DHT22;9487;50.892;6.906;2024-02-23T11:50:04;10.10;1.00
18717;DHT22;9487;50.892;6.906;2024-02-23T11:52:33;10.20;1.00
18717;DHT22;9487;50.892;6.906;2024-02-23T11:55:00;10.20;1.00
18717;DHT22;9487;50.892;6.906;2024-02-23T11:57:27;10.10;1.00
18717;DHT22;9487;50.892;6.906;2024-02-23T11:59:55;10.20;1.00
18717;DHT22;9487;50.892;6.906;2024-02-23T12:02:24;10.20;99.90
18717;DHT22;9487;50.892;6.906;2024-02-23T12:04:50;10.20;1.00
18717;DHT22;9487;50.892;6.906;2024-02-23T12:07:18;10.00;1.00
18717;DHT22;9487;50.892;6.906;2024-02-23T12:09:46;10.10;1.00
18717;DHT22;9487;50.892;6.906;2024-02-23T12:12:13;10.00;1.00
18717;DHT22;9487;50.892;6.906;2024-02-23T12:14:40;10.00;1.00
18717;DHT22;9487;50.892;6.906;2024-02-23T12:17:09;10.00;1.00
18717;DHT22;9487;50.892;6.906;2024-02-23T12:19:38;9.90;1.00
18717;DHT22;9487;50.892;6.906;2024-02-23T12:22:06;9.90;1.00
18717;DHT22;9487;50.892;6.906;2024-02-23T12:24:34;9.90;1.00
18717;DHT22;9487;50.892;6.906;2024-02-23T12:27:01;9.90;1.00
18717;DHT22;9487;50.892;6.906;2024-02-23T12:29:28;10.00;1.00
18717;DHT22;9487;50.892;6.906;2024-02-23T12:32:03;10.00;1.00
18717;DHT22;9487;50.892;6.906;2024-02-23T12:34:31;10.10;1.00
18717;DHT22;9487;50.892;6.906;2024-02-23T12:36:59;10.10;1.00
18717;DHT22;9487;50.892;6.906;2024-02-23T12:39:25;10.20;1.00
18717;DHT22;9487;50.892;6.906;2024-02-23T12:41:52;10.40;1.00
18717;DHT22;9487;50.892;6.906;2024-02-23T12:44:22;10.40;1.00
18717;DHT22;9487;50.892;6.906;2024-02-23T12:46:49;10.50;1.00
18717;DHT22;9487;50.892;6.906;2024-02-23T12:49:16;10.60;99.90
18717;DHT22;9487;50.892;6.906;2024-02-23T12:51:45;10.60;1.00
18717;DHT22;9487;50.892;6.906;2024-02-23T12:54:12;10.70;99.90
18717;DHT22;9487;50.892;6.906;2024-02-23T12:56:38;10.60;99.90
18717;DHT22;9487;50.892;6.906;2024-02-23T12:59:05;10.70;99.90
18717;DHT22;9487;50.892;6.906;2024-02-23T13:01:32;10.70;99.90
18717;DHT22;9487;50.892;6.906;2024-02-23T13:04:02;10.70;99.90
18717;DHT22;9487;50.892;6.906;2024-02-23T13:06:39;10.60;1.00
18717;DHT22;9487;50.892;6.906;2024-02-23T13:09:14;10.50;1.00
18717;DHT22;9487;50.892;6.906;2024-02-23T13:11:42;10.30;1.00
18717;DHT22;9487;50.892;6.906;2024-02-23T13:14:10;10.30;1.00
18717;DHT22;9487;50.892;6.906;2024-02-23T13:16:40;10.30;1.00
18717;DHT22;9487;50.892;6.906;2024-02-23T13:19:07;10.40;1.00
18717;DHT22;9487;50.892;6.906;2024-02-23T13:21:34;10.40;1.00
18717;DHT22;9487;50.892;6.906;2024-02-23T13:24:03;10.30;1.00
18717;DHT22;9487;50.892;6.906;2024-02-23T13:26:43;10.40;99.90
18717;DHT22;9487;50.892;6.906;2024-02-23T13:29:10;10.50;1.00
18717;DHT22;9487;50.892;6.906;2024-02-23T13:31:39;10.60;1.00
18717;DHT22;9487;50.892;6.906;2024-02-23T13:34:06;10.70;1.00
18717;DHT22;9487;50.892;6.906;2024-02-23T13:36:35;10.90;99.90
18717;DHT22;9487;50.892;6.906;2024-02-23T13:39:09;10.90;99.90
18717;DHT22;9487;50.892;6.906;2024-02-23T13:41:38;10.90;99.90
18717;DHT22;9487;50.892;6.906;2024-02-23T13:44:12;10.90;99.90
18717;DHT22;9487;50.892;6.906;2024-02-23T13:46:39;11.10;99.90
18717;DHT22;9487;50.892;6.906;2024-02-23T13:49:12;11.10;99.90
18717;DHT22;9487;50.892;6.906;2024-02-23T13:51:53;11.10;99.90
18717;DHT22;9487;50.892;6.906;2024-02-23T13:54:20;11.00;99.90
18717;DHT22;9487;50.892;6.906;2024-02-23T13:57:06;11.00;99.90
18717;DHT22;9487;50.892;6.906;2024-02-23T13:59:41;11.20;99.90
18717;DHT22;9487;50.892;6.906;2024-02-23T14:02:09;11.20;99.90
18717;DHT22;9487;50.892;6.906;2024-02-23T14:04:45;11.30;99.90
18717;DHT22;9487;50.892;6.906;2024-02-23T14:07:13;11.30;99.90
18717;DHT22;9487;50.892;6.906;2024-02-23T14:09:41;11.30;99.90
18717;DHT22;9487;50.892;6.906;2024-02-23T14:12:10;11.20;99.90
18717;DHT22;9487;50.892;6.906;2024-02-23T14:14:51;11.20;99.90
18717;DHT22;9487;50.892;6.906;2024-02-23T14:17:32;11.20;99.90
18717;DHT22;9487;50.892;6.906;2024-02-23T14:20:13;11.20;99.90
18717;DHT22;9487;50.892;6.906;2024-02-23T14:22:54;11.20;99.90
18717;DHT22;9487;50.892;6.906;2024-02-23T14:25:23;11.20;99.90
18717;DHT22;9487;50.892;6.906;2024-02-23T14:27:52;11.40;99.90
18717;DHT22;9487;50.892;6.906;2024-02-23T14:30:21;11.40;99.90
18717;DHT22;9487;50.892;6.906;2024-02-23T14:32:57;11.30;99.90
18717;DHT22;9487;50.892;6.906;2024-02-23T14:35:38;11.10;99.90
18717;DHT22;9487;50.892;6.906;2024-02-23T14:38:19;11.00;99.90
18717;DHT22;9487;50.892;6.906;2024-02-23T14:40:47;11.10;99.90
18717;DHT22;9487;50.892;6.906;2024-02-23T14:43:15;11.20;99.90
18717;DHT22;9487;50.892;6.906;2024-02-23T14:45:44;11.00;99.90
18717;DHT22;9487;50.892;6.906;2024-02-23T14:48:25;11.10;99.90
18717;DHT22;9487;50.892;6.906;2024-02-23T14:51:07;11.00;99.90
18717;DHT22;9487;50.892;6.906;2024-02-23T14:53:41;10.80;99.90
18717;DHT22;9487;50.892;6.906;2024-02-23T14:56:22;10.70;1.00
18717;DHT22;9487;50.892;6.906;2024-02-23T14:58:51;10.60;1.00
18717;DHT22;9487;50.892;6.906;2024-02-23T15:01:23;10.50;1.00
18717;DHT22;9487;50.892;6.906;2024-02-23T15:03:50;10.40;1.00
18717;DHT22;9487;50.892;6.906;2024-02-23T15:06:19;10.40;1.00
18717;DHT22;9487;50.892;6.906;2024-02-23T15:08:48;10.40;1.00
18717;DHT22;9487;50.892;6.906;2024-02-23T15:11:19;10.40;1.00
18717;DHT22;9487;50.892;6.906;2024-02-23T15:13:53;10.30;21.50
18717;DHT22;9487;50.892;6.906;2024-02-23T15:16:23;10.30;99.90
18717;DHT22;9487;50.892;6.906;2024-02-23T15:18:51;10.30;99.90
18717;DHT22;9487;50.892;6.906;2024-02-23T15:21:18;10.40;99.90
18717;DHT22;9487;50.892;6.906;2024-02-23T15:23:52;10.40;99.90
18717;DHT22;9487;50.892;6.906;2024-02-23T15:26:22;10.40;93.30
18717;DHT22;9487;50.892;6.906;2024-02-23T15:29:12;10.40;99.90
18717;DHT22;9487;50.892;6.906;2024-02-23T15:31:39;10.40;1.00
18717;DHT22;9487;50.892;6.906;2024-02-23T15:34:18;10.40;53.40
18717;DHT22;9487;50.892;6.906;2024-02-23T15:36:46;10.30;1.00
18717;DHT22;9487;50.892;6.906;2024-02-23T15:39:27;10.40;1.00
18717;DHT22;9487;50.892;6.906;2024-02-23T15:42:08;10.30;1.00
18717;DHT22;9487;50.892;6.906;2024-02-23T15:44:47;10.30;1.00
18717;DHT22;9487;50.892;6.906;2024-02-23T15:47:22;10.20;1.00
18717;DHT22;9487;50.892;6.906;2024-02-23T15:49:49;10.20;1.00
18717;DHT22;9487;50.892;6.906;2024-02-23T15:52:16;10.20;1.00
18717;DHT22;9487;50.892;6.906;2024-02-23T15:54:44;10.10;99.90
18717;DHT22;9487;50.892;6.906;2024-02-23T15:57:11;10.20;99.90
18717;DHT22;9487;50.892;6.906;2024-02-23T15:59:53;10.20;1.00
18717;DHT22;9487;50.892;6.906;2024-02-23T16:02:20;10.10;1.00
18717;DHT22;9487;50.892;6.906;2024-02-23T16:04:48;10.00;1.00
18717;DHT22;9487;50.892;6.906;2024-02-23T16:07:21;10.00;1.00
18717;DHT22;9487;50.892;6.906;2024-02-23T16:09:52;9.90;1.00
18717;DHT22;9487;50.892;6.906;2024-02-23T16:12:19;9.80;1.00
18717;DHT22;9487;50.892;6.906;2024-02-23T16:15:02;9.90;1.00